首页
METAR-TAF:

METAR-TAF

机场 :

Phoenix Deer Valley Airport

鳳凰城, 亞利桑那州, 美国

纬度: 33-41-25N, 经度: 112-03-56W, 海拔: 450米

当前天气观测

该预报发布于51分钟前的14:53 UTC
风速3节,风向
温度 14°C
湿度 44%
气压 1017 hPa
能見度: 16.1公里
天空无云

METAR: KDVT 131453Z 35003KT 10SM CLR 14/02 A3003 RMK AO2 SLP157 T01390022 53010

时间: 08:44 (15:44 UTC)

预报

该预报发布于4小时和24分钟前的11:20 UTC
预报有效从13日的 12点(UTC)到 14日的 12点(UTC)
风速3节,风向多变
能見度: 10公里
少量云层高于25000英尺
从 13日的 2000点(UTC)
风速4节,风向西南
能見度: 10公里
少量云层高于25000英尺
从 14日的 0100点(UTC)
风速4节,风向东北
能見度: 10公里
散云层高于25000英尺

TAF: KDVT 131120Z 1312/1412 VRB03KT P6SM FEW250 FM132000 22004KT P6SM FEW250 FM140100 05004KT P6SM SCT250

超过4000个机场的气象观测和天气预报(METAR&TAF报告)。

可查询的气象台以黄色和红色小点在地图上表示。

将鼠标移到小点上方,可查看气象台名称。

然后点击查看天气观测和预报。

如需切换地图:点击带黑十字的绿色按钮放大地图;点击带横线的绿色按钮缩小地图;或者点击绿色箭头查看邻近地区的地图。


METAR-TAF: